Time;durP1;ratioP1;P1;durP2;ratioP2;P2;SDS_P1;SDS_P2;PMS_P1;PMS_P2;Temp;Humidity;BMP_temperature;BMP_pressure;BME280_temperature;BME280_humidity;BME280_pressure;Samples;Min_cycle;Max_cycle;Signal;HPM_P1;HPM_P2
2023/07/15 00:00:14;;;;;;;2.20;1.00;;;;;;;21.26;59.20;98899.78;335766;28;5073;-63
2023/07/15 00:00:26;;;;;;;1.20;0.98;;;;;;;21.27;59.36;98890.88;332628;28;18073;-63
2023/07/15 00:00:39;;;;;;;1.17;0.95;;;;;;;21.26;58.92;98890.03;335141;28;4501;-62
2023/07/15 00:00:53;;;;;;;1.13;0.90;;;;;;;21.25;58.79;98890.16;327463;28;16344;-62
2023/07/15 00:01:23;;;;;;;1.60;1.00;;;;;;;21.30;58.73;98895.91;333773;28;11407;-62
2023/07/15 00:01:36;;;;;;;1.63;0.82;;;;;;;21.31;58.15;98887.84;333556;28;17377;-62
2023/07/15 00:01:49;;;;;;;0.98;0.80;;;;;;;21.33;58.67;98895.63;333373;28;4601;-62
2023/07/15 00:02:01;;;;;;;0.90;0.80;;;;;;;21.30;59.16;98895.91;333278;28;5441;-63
2023/07/15 00:02:14;;;;;;;0.80;0.80;;;;;;;21.29;59.41;98891.59;334985;28;4686;-62
2023/07/15 00:02:25;;;;;;;0.77;0.77;;;;;;;21.29;59.79;98896.88;329560;28;5094;-63
2023/07/15 00:02:38;;;;;;;0.80;0.80;;;;;;;21.27;59.87;98896.16;332212;28;15573;-62
2023/07/15 00:02:53;;;;;;;1.70;1.00;;;;;;;21.28;59.22;98897.84;335513;28;4562;-62
2023/07/15 00:03:08;;;;;;;1.67;0.90;;;;;;;21.30;58.89;98895.91;332497;28;17408;-62
2023/07/15 00:03:20;;;;;;;1.88;0.80;;;;;;;21.30;59.30;98901.19;329801;28;19271;-62
2023/07/15 00:03:34;;;;;;;2.35;0.95;;;;;;;21.29;58.98;98896.88;332785;28;18062;-62
2023/07/15 00:03:49;;;;;;;1.35;1.00;;;;;;;21.28;59.28;98900.47;330314;28;4695;-62
2023/07/15 00:04:01;;;;;;;1.33;1.13;;;;;;;21.27;59.40;98890.88;334785;28;18197;-63
2023/07/15 00:04:14;;;;;;;1.38;1.20;;;;;;;21.29;59.05;98897.72;332579;28;18625;-62
2023/07/15 00:04:29;;;;;;;1.00;0.90;;;;;;;21.29;59.03;98892.41;332015;28;12899;-63
2023/07/15 00:04:41;;;;;;;0.80;0.70;;;;;;;21.29;59.09;98896.88;335228;28;6749;-62
2023/07/15 00:04:53;;;;;;;1.02;0.85;;;;;;;21.30;58.89;98896.72;332657;28;18340;-62
2023/07/15 00:05:26;;;;;;;1.33;1.00;;;;;;;21.27;59.17;98893.50;334818;28;5663;-63
2023/07/15 00:05:39;;;;;;;1.13;0.90;;;;;;;21.31;58.99;98897.56;332470;28;17065;-62
2023/07/15 00:05:51;;;;;;;1.30;0.88;;;;;;;21.31;59.06;98903.69;336018;28;5696;-62
2023/07/15 00:06:05;;;;;;;1.10;0.70;;;;;;;21.32;58.87;98901.88;333793;28;18269;-62
2023/07/15 00:06:20;;;;;;;1.00;0.82;;;;;;;21.30;58.75;98907.28;331826;28;13578;-62
2023/07/15 00:06:32;;;;;;;1.17;1.02;;;;;;;21.29;59.13;98889.78;332288;28;12333;-62
2023/07/15 00:06:44;;;;;;;1.30;1.00;;;;;;;21.31;58.56;98897.56;335033;28;5473;-62
2023/07/15 00:06:57;;;;;;;1.10;0.93;;;;;;;21.29;58.61;98900.34;335471;28;4560;-62
2023/07/15 00:07:09;;;;;;;1.10;1.00;;;;;;;21.28;58.42;98897.84;332331;28;18048;-63
2023/07/15 00:07:21;;;;;;;1.20;1.10;;;;;;;21.25;58.70;98900.75;334957;28;4662;-62
2023/07/15 00:07:33;;;;;;;0.90;0.82;;;;;;;21.25;59.05;98900.75;335589;28;4673;-62
2023/07/15 00:07:45;;;;;;;1.10;0.80;;;;;;;21.24;59.04;98897.28;332936;28;18129;-63
2023/07/15 00:07:57;;;;;;;0.98;0.80;;;;;;;21.23;58.76;98900.03;335018;28;5245;-63
2023/07/15 00:08:09;;;;;;;0.90;0.80;;;;;;;21.23;58.64;98897.41;332609;28;19196;-63
2023/07/15 00:08:21;;;;;;;0.88;0.88;;;;;;;21.22;58.81;98899.22;330487;28;4802;-63
2023/07/15 00:08:33;;;;;;;1.15;0.80;;;;;;;21.22;59.02;98893.94;332864;28;5481;-62
2023/07/15 00:08:45;;;;;;;1.88;0.80;;;;;;;21.24;59.15;98897.28;334961;28;4729;-63
2023/07/15 00:08:58;;;;;;;4.20;0.80;;;;;;;21.24;58.82;98902.56;334159;28;4644;-62
2023/07/15 00:09:10;;;;;;;3.50;0.85;;;;;;;21.25;58.45;98903.38;331818;28;18471;-63
2023/07/15 00:09:27;;;;;;;0.98;0.82;;;;;;;21.23;58.73;98900.03;335071;28;5447;-63
2023/07/15 00:09:40;;;;;;;1.15;0.90;;;;;;;21.23;59.07;98900.91;333596;28;18096;-63
2023/07/15 00:09:52;;;;;;;1.80;0.80;;;;;;;21.23;58.93;98895.63;327763;28;17962;-63
2023/07/15 00:10:06;;;;;;;2.10;0.80;;;;;;;21.23;59.19;98902.69;332494;28;11338;-62
2023/07/15 00:10:21;;;;;;;1.25;0.80;;;;;;;21.23;59.23;98905.31;338835;28;5169;-62
2023/07/15 00:10:34;;;;;;;1.02;0.82;;;;;;;21.22;58.80;98901.03;336098;28;18238;-62
2023/07/15 00:10:46;;;;;;;1.17;0.90;;;;;;;21.22;59.07;98898.38;335887;28;18106;-62
2023/07/15 00:10:59;;;;;;;1.17;1.00;;;;;;;21.24;58.92;98896.44;338787;28;5308;-62
2023/07/15 00:11:43;;;;;;;1.20;1.10;;;;;;;21.25;58.76;98903.38;334939;28;18088;-62
2023/07/15 00:11:55;;;;;;;1.30;1.10;;;;;;;21.26;58.98;98905.06;335021;28;17432;-62
2023/07/15 00:12:09;;;;;;;1.10;0.98;;;;;;;21.27;58.69;98904.09;335092;28;18125;-62
2023/07/15 00:12:21;;;;;;;1.40;0.90;;;;;;;21.28;58.63;98908.41;333706;28;18305;-62
2023/07/15 00:12:33;;;;;;;1.80;0.80;;;;;;;21.27;58.82;98904.94;335287;28;4693;-63
2023/07/15 00:12:45;;;;;;;1.75;0.82;;;;;;;21.26;58.69;98900.59;335242;28;5199;-63
2023/07/15 00:12:57;;;;;;;1.33;0.82;;;;;;;21.28;58.70;98905.75;332821;28;18360;-63
2023/07/15 00:13:14;;;;;;;1.00;0.90;;;;;;;21.27;58.54;98896.16;330711;28;5490;-62
2023/07/15 00:13:26;;;;;;;1.10;0.80;;;;;;;21.27;58.83;98896.16;334917;28;18745;-62
2023/07/15 00:13:39;;;;;;;1.20;0.90;;;;;;;21.26;59.64;98905.06;332556;28;17856;-63
2023/07/15 00:13:51;;;;;;;1.77;1.00;;;;;;;21.24;59.85;98904.38;334932;28;4521;-62
2023/07/15 00:14:14;;;;;;;2.63;1.23;;;;;;;21.25;59.32;98903.38;332936;28;18152;-62
2023/07/15 00:14:28;;;;;;;2.63;1.10;;;;;;;21.24;59.04;98910.47;332472;28;17423;-62
2023/07/15 00:14:40;;;;;;;1.80;1.00;;;;;;;21.26;58.98;98907.72;332768;28;19095;-62
2023/07/15 00:14:52;;;;;;;1.08;0.93;;;;;;;21.26;58.69;98905.06;335013;28;4704;-62
2023/07/15 00:15:06;;;;;;;1.10;0.90;;;;;;;21.24;59.16;98907.00;331973;28;18138;-62
2023/07/15 00:15:18;;;;;;;1.23;1.00;;;;;;;21.20;59.44;98905.63;332380;28;18342;-62
2023/07/15 00:15:30;;;;;;;1.08;0.98;;;;;;;21.20;59.57;98905.63;336693;28;4792;-62
2023/07/15 00:15:45;;;;;;;1.10;1.00;;;;;;;21.18;59.15;98902.28;333849;28;4686;-62
2023/07/15 00:15:58;;;;;;;1.27;1.13;;;;;;;21.13;60.11;98895.59;336275;28;17371;-62
2023/07/15 00:16:10;;;;;;;1.27;1.10;;;;;;;21.14;59.84;98901.69;334175;28;18359;-62
2023/07/15 00:16:22;;;;;;;2.00;1.02;;;;;;;21.13;59.35;98898.22;335917;28;4665;-62
2023/07/15 00:16:35;;;;;;;2.00;1.05;;;;;;;21.12;59.59;98896.53;332751;28;17956;-62
2023/07/15 00:16:49;;;;;;;1.75;1.05;;;;;;;21.13;59.33;98900.88;331919;28;5883;-63
2023/07/15 00:17:02;;;;;;;1.33;1.10;;;;;;;21.14;59.10;98902.53;334211;28;4530;-62
2023/07/15 00:17:14;;;;;;;1.00;0.90;;;;;;;21.10;59.92;98901.13;332088;28;18394;-63
2023/07/15 00:17:26;;;;;;;0.80;0.75;;;;;;;21.10;60.02;98901.13;335200;28;5190;-62
2023/07/15 00:17:39;;;;;;;1.30;0.80;;;;;;;21.07;60.12;98896.13;334628;28;4790;-63
2023/07/15 00:17:52;;;;;;;1.30;0.80;;;;;;;21.08;60.28;98896.97;331688;28;18318;-62
2023/07/15 00:18:05;;;;;;;1.85;0.90;;;;;;;21.06;60.20;98905.00;333726;28;12048;-62
2023/07/15 00:18:17;;;;;;;1.58;0.90;;;;;;;21.05;60.56;98902.53;336215;28;4837;-62
2023/07/15 00:18:29;;;;;;;1.23;0.88;;;;;;;21.05;60.49;98892.78;333978;28;12494;-62
2023/07/15 00:18:41;;;;;;;0.88;0.75;;;;;;;21.07;60.28;98896.13;336296;28;4668;-63
2023/07/15 00:18:53;;;;;;;1.05;0.80;;;;;;;21.07;59.54;98901.41;336079;28;4852;-62
2023/07/15 00:19:05;;;;;;;1.10;0.90;;;;;;;21.10;59.59;98900.31;333252;28;18248;-62
2023/07/15 00:19:18;;;;;;;1.17;0.88;;;;;;;21.10;59.84;98895.03;331662;28;5236;-62
2023/07/15 00:19:33;;;;;;;1.20;0.90;;;;;;;21.09;59.84;98904.75;333750;28;18157;-62
2023/07/15 00:19:45;;;;;;;1.60;0.98;;;;;;;21.12;59.65;98898.34;331884;28;16651;-62
2023/07/15 00:19:57;;;;;;;1.73;1.00;;;;;;;21.12;59.57;98899.19;337097;28;5188;-62
2023/07/15 00:20:14;;;;;;;1.20;0.90;;;;;;;21.13;59.60;98895.59;336758;28;12145;-63
2023/07/15 00:20:27;;;;;;;1.00;0.90;;;;;;;21.15;59.00;98898.94;333560;28;16676;-63
2023/07/15 00:20:39;;;;;;;1.00;0.93;;;;;;;21.17;59.06;98897.94;331482;28;5475;-62
2023/07/15 00:20:51;;;;;;;1.25;1.10;;;;;;;21.15;58.86;98893.66;332414;28;18325;-63
2023/07/15 00:21:20;;;;;;;1.48;1.05;;;;;;;21.18;59.00;98897.00;334643;28;4548;-62
2023/07/15 00:21:36;;;;;;;1.20;0.90;;;;;;;21.15;59.85;98906.03;333585;28;17311;-62
2023/07/15 00:21:48;;;;;;;1.23;0.95;;;;;;;21.15;59.56;98895.47;331112;28;18891;-62
2023/07/15 00:22:00;;;;;;;1.15;0.95;;;;;;;21.14;59.59;98899.88;332177;28;5457;-62
2023/07/15 00:22:13;;;;;;;1.20;1.00;;;;;;;21.15;59.02;98898.94;333976;28;17496;-63
2023/07/15 00:22:25;;;;;;;1.20;0.90;;;;;;;21.17;59.11;98895.31;333183;28;4848;-62
2023/07/15 00:22:37;;;;;;;1.30;0.80;;;;;;;21.15;58.89;98893.66;334925;28;4709;-62
2023/07/15 00:22:49;;;;;;;1.13;0.82;;;;;;;21.17;58.80;98901.44;335219;28;4512;-62
2023/07/15 00:23:05;;;;;;;1.00;0.90;;;;;;;21.18;58.94;98897.00;331966;28;18688;-63
2023/07/15 00:23:22;;;;;;;1.10;1.00;;;;;;;21.18;59.05;98899.63;332658;28;17496;-62
2023/07/15 00:23:34;;;;;;;1.30;1.00;;;;;;;21.18;59.06;98897.00;335169;28;4664;-63
2023/07/15 00:23:57;;;;;;;1.80;0.90;;;;;;;21.17;59.47;98896.16;332755;28;18900;-62
2023/07/15 00:24:09;;;;;;;1.30;0.90;;;;;;;21.17;59.41;98896.16;332103;28;17098;-62
2023/07/15 00:24:21;;;;;;;1.33;0.95;;;;;;;21.17;59.58;98901.44;332297;28;17940;-62
2023/07/15 00:24:33;;;;;;;1.70;1.10;;;;;;;21.17;59.39;98896.16;335411;28;4712;-62
2023/07/15 00:24:46;;;;;;;2.25;1.25;;;;;;;21.17;59.09;98896.16;334211;28;12455;-62
2023/07/15 00:24:58;;;;;;;1.60;1.10;;;;;;;21.15;59.05;98888.38;332687;28;18306;-63
2023/07/15 00:25:15;;;;;;;1.23;1.00;;;;;;;21.18;59.30;98902.28;330564;28;5415;-62
2023/07/15 00:25:27;;;;;;;1.38;1.05;;;;;;;21.17;58.97;98896.16;332832;28;17945;-63
2023/07/15 00:25:39;;;;;;;1.70;1.10;;;;;;;21.18;59.28;98897.00;335140;28;4651;-62
2023/07/15 00:25:53;;;;;;;1.35;0.90;;;;;;;21.15;59.32;98892.81;334982;28;4574;-62
2023/07/15 00:26:07;;;;;;;1.08;0.88;;;;;;;21.10;60.00;98893.19;331865;28;18257;-62
2023/07/15 00:26:21;;;;;;;1.23;0.90;;;;;;;21.10;59.70;98895.84;332416;28;19202;-63
2023/07/15 00:26:34;;;;;;;1.40;0.85;;;;;;;21.10;59.71;98895.84;332612;28;16327;-63
2023/07/15 00:26:47;;;;;;;1.08;0.73;;;;;;;21.12;59.19;98898.34;330363;28;4588;-62
2023/07/15 00:27:00;;;;;;;0.93;0.75;;;;;;;21.11;59.29;98897.53;332444;28;17966;-63
2023/07/15 00:27:12;;;;;;;1.00;0.90;;;;;;;21.12;59.42;98895.72;335007;28;4497;-62
2023/07/15 00:27:25;;;;;;;1.00;0.90;;;;;;;21.10;59.65;98895.84;332243;28;18003;-62
2023/07/15 00:27:37;;;;;;;0.95;0.90;;;;;;;21.07;60.06;98898.78;335167;28;4652;-63
2023/07/15 00:27:49;;;;;;;0.93;0.90;;;;;;;21.05;60.06;98897.25;332337;28;19338;-62
2023/07/15 00:28:01;;;;;;;1.00;0.90;;;;;;;21.04;59.83;98901.69;330626;28;5447;-62
2023/07/15 00:28:13;;;;;;;0.88;0.88;;;;;;;21.03;59.31;98889.44;331575;28;18466;-62
2023/07/15 00:28:25;;;;;;;1.00;0.90;;;;;;;21.02;59.49;98900.97;333928;28;4610;-62
2023/07/15 00:28:37;;;;;;;0.95;0.80;;;;;;;21.01;59.74;98896.69;333773;28;4750;-62
2023/07/15 00:28:50;;;;;;;1.00;0.88;;;;;;;21.01;59.61;98896.69;330911;28;18032;-62
2023/07/15 00:29:03;;;;;;;1.60;1.00;;;;;;;20.99;59.65;98893.34;333845;28;4511;-62
2023/07/15 00:29:16;;;;;;;1.55;1.00;;;;;;;20.99;59.51;98893.34;330761;28;18043;-62
2023/07/15 00:29:29;;;;;;;1.15;0.93;;;;;;;20.97;60.06;98900.56;331498;28;5221;-62
2023/07/15 00:29:41;;;;;;;1.15;1.00;;;;;;;20.99;59.71;98892.47;336714;28;4646;-62
2023/07/15 00:29:53;;;;;;;1.15;1.02;;;;;;;20.99;59.14;98895.13;337286;28;4947;-62
2023/07/15 00:30:06;;;;;;;1.13;1.00;;;;;;;20.98;59.60;98896.94;334971;28;18251;-62
2023/07/15 00:30:21;;;;;;;1.17;1.00;;;;;;;21.00;59.47;98900.28;334624;28;16157;-63
2023/07/15 00:30:34;;;;;;;1.15;1.00;;;;;;;21.02;59.18;98903.63;334610;28;5140;-63
2023/07/15 00:30:50;;;;;;;1.30;0.90;;;;;;;21.01;59.10;98896.69;337295;28;4572;-62
2023/07/15 00:31:11;;;;;;;1.45;0.98;;;;;;;21.01;58.96;98899.31;334959;28;17817;-62
2023/07/15 00:31:24;;;;;;;1.33;0.98;;;;;;;21.02;59.21;98902.78;336470;28;17145;-62
2023/07/15 00:31:36;;;;;;;1.33;0.93;;;;;;;21.01;59.08;98896.69;334640;28;19050;-63
2023/07/15 00:31:48;;;;;;;1.65;1.00;;;;;;;21.01;59.34;98901.97;332715;28;5279;-63
2023/07/15 00:32:04;;;;;;;1.98;1.17;;;;;;;20.99;59.44;98893.34;335083;28;4780;-62
2023/07/15 00:32:17;;;;;;;1.63;1.20;;;;;;;20.91;59.83;98898.47;332694;28;17951;-62
2023/07/15 00:32:29;;;;;;;1.45;1.10;;;;;;;20.93;59.55;98893.88;335150;28;5229;-63
2023/07/15 00:32:49;;;;;;;1.00;0.90;;;;;;;20.95;59.11;98891.94;332143;28;19159;-63
2023/07/15 00:33:02;;;;;;;1.02;0.85;;;;;;;20.94;59.36;98895.53;331389;28;18089;-62
2023/07/15 00:33:15;;;;;;;1.40;1.02;;;;;;;20.97;59.29;98895.28;331816;28;5149;-62
2023/07/15 00:33:28;;;;;;;1.48;1.15;;;;;;;20.96;59.77;98893.59;333728;28;5721;-62
2023/07/15 00:33:40;;;;;;;1.42;1.13;;;;;;;20.99;59.24;98897.75;330787;28;19706;-62
2023/07/15 00:33:52;;;;;;;1.23;1.00;;;;;;;20.98;59.88;98896.94;333637;28;5929;-63
2023/07/15 00:34:05;;;;;;;1.00;0.90;;;;;;;20.99;59.64;98897.75;334735;28;6355;-62
2023/07/15 00:34:17;;;;;;;1.70;1.00;;;;;;;21.00;59.16;98896.81;332745;28;18026;-62
2023/07/15 00:34:29;;;;;;;1.75;1.02;;;;;;;21.02;59.29;98898.34;334882;28;5600;-63
2023/07/15 00:34:41;;;;;;;1.77;1.08;;;;;;;21.04;58.99;98901.69;331654;28;16192;-62
2023/07/15 00:34:53;;;;;;;1.48;1.00;;;;;;;21.03;59.23;98900.03;333904;28;5234;-62
2023/07/15 00:35:28;;;;;;;1.20;0.90;;;;;;;21.04;58.88;98899.03;334190;28;5402;-62
2023/07/15 00:35:41;;;;;;;1.67;0.98;;;;;;;21.01;59.19;98896.69;333372;28;17074;-62
2023/07/15 00:35:53;;;;;;;1.02;0.90;;;;;;;21.02;59.10;98889.56;332511;28;18173;-63
2023/07/15 00:36:06;;;;;;;1.05;0.95;;;;;;;20.94;59.55;98890.25;332045;28;12688;-62
2023/07/15 00:36:18;;;;;;;1.80;1.10;;;;;;;20.92;59.58;98898.31;335461;28;17976;-63
2023/07/15 00:36:32;;;;;;;1.70;1.00;;;;;;;20.89;59.72;98892.47;333822;28;12810;-62
2023/07/15 00:36:44;;;;;;;0.98;0.80;;;;;;;20.88;60.06;98896.06;335675;28;4657;-63
2023/07/15 00:36:56;;;;;;;1.73;1.00;;;;;;;20.88;59.69;98896.91;335921;28;5619;-63
2023/07/15 00:37:08;;;;;;;1.88;1.00;;;;;;;20.90;59.76;98896.78;328790;28;18329;-62
2023/07/15 00:37:20;;;;;;;1.10;0.90;;;;;;;20.91;59.80;98894.00;334904;28;4692;-62
2023/07/15 00:37:34;;;;;;;1.17;0.93;;;;;;;20.92;59.88;98892.19;332510;28;18033;-62
2023/07/15 00:37:47;;;;;;;1.35;1.00;;;;;;;20.96;59.66;98898.88;336605;28;4805;-62
2023/07/15 00:37:59;;;;;;;1.23;1.00;;;;;;;20.94;59.76;98895.53;330080;28;18026;-62
2023/07/15 00:38:12;;;;;;;1.40;1.00;;;;;;;20.95;59.41;98886.66;335343;28;13266;-62
2023/07/15 00:38:24;;;;;;;1.23;1.02;;;;;;;20.94;59.48;98895.53;337447;28;4571;-62
2023/07/15 00:38:36;;;;;;;1.30;0.98;;;;;;;20.93;59.49;98893.88;336918;28;5403;-62
2023/07/15 00:38:49;;;;;;;1.20;1.00;;;;;;;20.95;59.77;98902.50;333579;28;18360;-62
2023/07/15 00:39:01;;;;;;;1.23;1.00;;;;;;;20.97;59.53;98905.84;337175;28;4653;-62
2023/07/15 00:39:13;;;;;;;1.20;1.00;;;;;;;20.98;59.35;98902.22;334425;28;19108;-62
2023/07/15 00:39:25;;;;;;;1.23;1.02;;;;;;;20.98;58.81;98910.13;336126;28;4756;-62
2023/07/15 00:39:37;;;;;;;2.05;1.30;;;;;;;20.99;58.63;98908.31;336402;28;4667;-62
2023/07/15 00:39:49;;;;;;;1.85;1.30;;;;;;;20.96;58.70;98904.16;332292;28;18064;-63
2023/07/15 00:40:03;;;;;;;1.42;1.08;;;;;;;20.94;58.71;98900.81;334673;28;4789;-62
2023/07/15 00:40:16;;;;;;;1.27;1.00;;;;;;;20.85;58.96;98896.34;327447;28;18171;-63
2023/07/15 00:40:32;;;;;;;1.38;1.10;;;;;;;20.81;59.08;98905.50;335023;28;5068;-62
2023/07/15 00:40:48;;;;;;;1.35;1.17;;;;;;;20.76;59.09;98892.69;331899;28;17641;-62
2023/07/15 00:41:00;;;;;;;1.40;1.10;;;;;;;20.77;59.20;98888.25;332391;28;17462;-62
2023/07/15 00:41:15;;;;;;;1.00;0.82;;;;;;;20.77;59.02;98888.25;334269;28;4602;-62
2023/07/15 00:41:31;;;;;;;0.93;0.80;;;;;;;20.74;59.77;98887.56;333117;28;17885;-63
2023/07/15 00:41:43;;;;;;;1.27;1.00;;;;;;;20.75;60.06;98897.16;333635;28;18355;-62
2023/07/15 00:41:59;;;;;;;1.65;1.00;;;;;;;20.77;59.66;98898.81;328592;28;17972;-62
2023/07/15 00:42:20;;;;;;;2.17;0.90;;;;;;;20.80;59.61;98898.53;332515;28;17927;-63
2023/07/15 00:42:42;;;;;;;0.98;0.80;;;;;;;20.82;59.30;98899.25;331101;28;17496;-62
2023/07/15 00:43:31;;;;;;;1.00;0.90;;;;;;;20.83;59.52;98900.94;331346;28;17343;-62
2023/07/15 00:43:56;;;;;;;1.10;1.00;;;;;;;20.78;59.59;98895.19;329902;28;20051;-62
2023/07/15 00:44:14;;;;;;;2.25;1.08;;;;;;;20.69;60.09;98897.69;331057;29;17540;-62
2023/07/15 00:44:26;;;;;;;2.45;1.08;;;;;;;20.67;60.18;98894.34;332381;28;17777;-62
2023/07/15 00:44:38;;;;;;;1.30;1.00;;;;;;;20.66;60.38;98903.22;335546;28;4661;-62
2023/07/15 00:44:50;;;;;;;1.00;0.85;;;;;;;20.66;60.31;98897.94;329307;28;12014;-63
2023/07/15 00:45:02;;;;;;;0.80;0.70;;;;;;;20.69;60.23;98896.84;332449;28;17947;-62
2023/07/15 00:45:14;;;;;;;1.00;0.90;;;;;;;20.69;60.89;98892.41;336095;28;4805;-62
2023/07/15 00:45:26;;;;;;;1.13;1.02;;;;;;;20.71;60.68;98900.19;333223;28;16418;-62
2023/07/15 00:45:37;;;;;;;1.63;1.30;;;;;;;20.70;60.97;98899.34;335284;28;4664;-62
2023/07/15 00:46:15;;;;;;;1.92;1.10;;;;;;;20.69;60.77;98897.69;334878;28;4733;-62
2023/07/15 00:46:46;;;;;;;1.30;1.05;;;;;;;20.73;60.76;98899.09;332191;28;12103;-62
2023/07/15 00:47:12;;;;;;;1.02;0.93;;;;;;;20.77;60.15;98894.38;332238;28;15934;-62
2023/07/15 00:47:38;;;;;;;0.80;0.80;;;;;;;20.80;60.11;98902.00;331400;28;17525;-62
2023/07/15 00:48:06;;;;;;;2.15;1.13;;;;;;;20.80;59.99;98898.53;327134;28;17097;-62
2023/07/15 00:48:24;;;;;;;1.27;1.17;;;;;;;20.80;60.11;98894.09;333180;28;17266;-62
2023/07/15 00:48:42;;;;;;;1.17;1.08;;;;;;;20.83;60.08;98888.56;332411;28;19136;-62
2023/07/15 00:49:05;;;;;;;0.88;0.85;;;;;;;20.85;60.20;98891.06;332043;28;17846;-62
2023/07/15 00:49:21;;;;;;;0.82;0.80;;;;;;;20.84;60.05;98889.38;332733;28;17228;-62
2023/07/15 00:49:34;;;;;;;0.80;0.80;;;;;;;20.83;59.93;98893.84;333056;28;17228;-62
2023/07/15 00:49:48;;;;;;;1.10;0.90;;;;;;;20.81;59.83;98901.06;334840;28;4558;-63
2023/07/15 00:50:00;;;;;;;1.52;1.10;;;;;;;20.81;59.74;98894.94;331493;28;17683;-63
2023/07/15 00:50:12;;;;;;;1.38;0.90;;;;;;;20.82;59.32;98896.59;331818;28;4847;-62
2023/07/15 00:50:24;;;;;;;0.77;0.75;;;;;;;20.80;59.51;98899.38;334533;28;5790;-62
2023/07/15 00:50:42;;;;;;;0.75;0.75;;;;;;;20.82;59.52;98893.97;334955;28;4646;-62
2023/07/15 00:50:54;;;;;;;1.00;0.90;;;;;;;20.83;59.60;98898.28;331650;28;17616;-62
2023/07/15 00:51:06;;;;;;;1.00;0.90;;;;;;;20.84;59.35;98902.59;335239;28;4679;-62
2023/07/15 00:51:20;;;;;;;2.30;1.08;;;;;;;20.84;59.44;98899.94;333520;28;19130;-62
2023/07/15 00:51:44;;;;;;;2.30;1.10;;;;;;;20.84;59.52;98899.94;333583;28;11506;-62
2023/07/15 00:52:09;;;;;;;1.10;1.00;;;;;;;20.70;59.86;98893.22;332719;28;17109;-62
2023/07/15 00:52:22;;;;;;;1.20;1.10;;;;;;;20.66;60.31;98903.22;327855;28;17425;-62
2023/07/15 00:52:33;;;;;;;2.40;1.20;;;;;;;20.62;60.83;98896.53;332501;28;12350;-63
2023/07/15 00:52:45;;;;;;;2.30;1.10;;;;;;;20.59;60.66;98896.81;334830;28;4637;-62
2023/07/15 00:52:58;;;;;;;1.02;0.93;;;;;;;20.62;60.64;98900.97;335770;28;5072;-62
2023/07/15 00:53:10;;;;;;;0.85;0.80;;;;;;;20.62;60.69;98895.69;332399;28;17786;-62
2023/07/15 00:53:22;;;;;;;1.10;0.80;;;;;;;20.64;60.43;98905.16;334911;28;4679;-62
2023/07/15 00:53:34;;;;;;;2.63;1.17;;;;;;;20.66;60.45;98903.22;333024;28;12251;-62
2023/07/15 00:53:47;;;;;;;3.10;1.40;;;;;;;20.67;60.54;98901.44;333590;28;18103;-62
2023/07/15 00:54:00;;;;;;;2.08;1.20;;;;;;;20.68;60.58;98898.63;334329;28;6239;-62
2023/07/15 00:54:13;;;;;;;1.65;1.15;;;;;;;20.68;60.68;98896.00;332147;28;18228;-62
2023/07/15 00:54:26;;;;;;;1.17;1.00;;;;;;;20.64;61.24;98894.59;332048;28;18195;-62
2023/07/15 00:54:41;;;;;;;1.08;0.90;;;;;;;20.62;61.47;98901.81;333835;28;5375;-62
2023/07/15 00:54:54;;;;;;;1.05;0.80;;;;;;;20.62;61.12;98899.16;331593;28;18903;-62
2023/07/15 00:55:08;;;;;;;1.15;1.00;;;;;;;20.63;61.03;98900.84;331499;28;18071;-62
2023/07/15 00:55:20;;;;;;;1.10;1.00;;;;;;;20.65;61.32;98893.63;331718;28;4590;-62
2023/07/15 00:55:32;;;;;;;1.65;1.20;;;;;;;20.68;60.72;98898.63;335156;28;5313;-62
2023/07/15 00:55:44;;;;;;;1.60;1.10;;;;;;;20.69;60.49;98892.41;333864;28;5041;-62
2023/07/15 00:55:57;;;;;;;1.65;1.08;;;;;;;20.71;60.55;98894.91;333231;28;16836;-62
2023/07/15 00:56:09;;;;;;;1.40;1.00;;;;;;;20.71;60.18;98895.72;336976;28;5083;-62
2023/07/15 00:56:24;;;;;;;1.02;0.93;;;;;;;20.71;60.10;98900.19;331834;28;18020;-62
2023/07/15 00:56:37;;;;;;;1.08;0.98;;;;;;;20.70;60.29;98896.69;333596;28;19238;-62
2023/07/15 00:56:49;;;;;;;1.80;0.98;;;;;;;20.69;59.96;98900.31;335786;28;6125;-62
2023/07/15 00:57:01;;;;;;;1.90;1.00;;;;;;;20.70;59.67;98904.63;333054;28;18403;-62
2023/07/15 00:57:15;;;;;;;1.20;0.93;;;;;;;20.66;59.83;98900.56;337619;28;5492;-62
2023/07/15 00:57:27;;;;;;;0.95;0.85;;;;;;;20.66;59.98;98894.47;330981;28;18050;-62
2023/07/15 00:57:40;;;;;;;0.98;0.80;;;;;;;20.66;60.14;98892.66;337592;28;4497;-63
2023/07/15 00:57:52;;;;;;;1.15;0.93;;;;;;;20.65;60.12;98896.28;333538;28;18158;-62
2023/07/15 00:58:04;;;;;;;1.27;1.00;;;;;;;20.66;59.87;98897.94;335615;28;4698;-62
2023/07/15 00:58:16;;;;;;;1.48;0.90;;;;;;;20.66;60.07;98892.66;330767;28;4714;-62
2023/07/15 00:58:28;;;;;;;1.58;0.98;;;;;;;20.67;60.06;98891.69;333724;28;5478;-62
2023/07/15 00:58:41;;;;;;;1.40;0.80;;;;;;;20.67;60.17;98896.16;331424;28;12548;-62
2023/07/15 00:58:53;;;;;;;0.70;0.70;;;;;;;20.65;60.82;98896.28;333686;28;4570;-63
2023/07/15 00:59:08;;;;;;;1.00;0.90;;;;;;;20.66;60.34;98895.28;331315;28;5233;-62
2023/07/15 00:59:20;;;;;;;1.35;0.98;;;;;;;20.67;60.48;98894.34;335400;28;4840;-62
2023/07/15 00:59:33;;;;;;;1.77;0.82;;;;;;;20.64;61.46;98894.59;329721;28;18368;-63
2023/07/15 00:59:47;;;;;;;2.60;0.90;;;;;;;20.63;61.23;98895.56;333766;28;6598;-63
2023/07/15 00:59:59;;;;;;;1.48;0.82;;;;;;;20.61;61.11;98889.59;332267;28;16768;-62
2023/07/15 01:00:12;;;;;;;1.10;1.00;;;;;;;20.62;61.12;98899.16;332502;28;16459;-63
2023/07/15 01:00:25;;;;;;;1.02;0.93;;;;;;;20.63;61.46;98892.94;335545;28;5178;-62
2023/07/15 01:00:37;;;;;;;0.85;0.85;;;;;;;20.64;60.80;98896.41;328167;28;4869;-63
2023/07/15 01:00:50;;;;;;;0.82;0.75;;;;;;;20.60;61.19;98898.47;334417;28;4586;-62
2023/07/15 01:01:03;;;;;;;1.00;0.80;;;;;;;20.60;61.06;98887.91;333325;28;16199;-62
2023/07/15 01:01:15;;;;;;;0.95;0.80;;;;;;;20.58;61.05;98895.09;331388;28;18369;-62
2023/07/15 01:01:28;;;;;;;0.82;0.70;;;;;;;20.57;61.38;98890.78;329291;28;5098;-63
2023/07/15 01:01:40;;;;;;;1.20;0.75;;;;;;;20.59;61.03;98888.88;332291;28;18301;-62
2023/07/15 01:01:53;;;;;;;1.60;0.88;;;;;;;20.55;60.88;98890.09;334652;28;4602;-63
2023/07/15 01:02:07;;;;;;;1.30;0.90;;;;;;;20.56;60.86;98891.75;331431;28;17948;-63
2023/07/15 01:02:20;;;;;;;0.90;0.80;;;;;;;20.59;60.88;98888.88;333393;28;18911;-63
2023/07/15 01:02:33;;;;;;;2.03;0.93;;;;;;;20.61;60.89;98892.22;332695;28;12039;-62
2023/07/15 01:02:45;;;;;;;2.08;1.00;;;;;;;20.62;60.72;98896.53;330493;28;5738;-63
2023/07/15 01:02:57;;;;;;;2.30;1.00;;;;;;;20.61;60.67;98894.88;332156;28;5175;-62
2023/07/15 01:03:09;;;;;;;1.33;1.00;;;;;;;20.65;60.90;98896.28;335013;28;4661;-62
2023/07/15 01:03:22;;;;;;;2.00;1.13;;;;;;;20.65;60.53;98895.44;335009;28;4664;-62
2023/07/15 01:03:34;;;;;;;2.00;1.02;;;;;;;20.65;60.58;98895.44;332433;28;18402;-62
2023/07/15 01:03:46;;;;;;;1.35;1.02;;;;;;;20.60;60.66;98892.34;333718;28;5137;-62
2023/07/15 01:03:58;;;;;;;1.20;1.10;;;;;;;20.60;60.65;98892.34;331676;28;11761;-62
2023/07/15 01:04:10;;;;;;;1.20;1.10;;;;;;;20.61;59.93;98899.31;335079;28;4656;-62
2023/07/15 01:04:22;;;;;;;1.00;0.95;;;;;;;20.58;60.06;98894.25;336141;28;4981;-62
2023/07/15 01:04:35;;;;;;;0.85;0.85;;;;;;;20.58;59.97;98897.72;333146;28;18261;-62
2023/07/15 01:04:49;;;;;;;0.90;0.90;;;;;;;20.59;60.08;98891.53;334945;28;4690;-62
2023/07/15 01:05:01;;;;;;;1.30;1.00;;;;;;;20.58;59.88;98895.09;332944;28;18746;-62
2023/07/15 01:05:13;;;;;;;1.73;1.00;;;;;;;20.59;60.06;98899.44;333908;28;6524;-63
2023/07/15 01:05:26;;;;;;;2.00;0.95;;;;;;;20.61;60.03;98897.50;334329;28;17863;-63
2023/07/15 01:05:38;;;;;;;1.70;1.13;;;;;;;20.61;59.85;98894.88;335651;28;4660;-62
2023/07/15 01:05:51;;;;;;;1.65;1.27;;;;;;;20.62;60.13;98896.53;334630;28;18102;-62
2023/07/15 01:06:03;;;;;;;1.70;1.30;;;;;;;20.65;60.01;98890.16;333222;28;18142;-62
2023/07/15 01:06:15;;;;;;;1.58;1.00;;;;;;;20.65;60.36;98896.28;329014;28;19017;-62
2023/07/15 01:06:28;;;;;;;1.52;0.95;;;;;;;20.66;60.15;98897.09;335080;28;4675;-62
2023/07/15 01:06:45;;;;;;;1.60;0.98;;;;;;;20.66;60.26;98891.81;331487;28;19263;-62
2023/07/15 01:06:57;;;;;;;1.25;0.90;;;;;;;20.64;60.23;98893.75;332725;28;17861;-62
2023/07/15 01:07:09;;;;;;;1.70;1.05;;;;;;;20.64;59.93;98897.22;334362;28;5496;-62
2023/07/15 01:07:21;;;;;;;1.90;1.20;;;;;;;20.63;60.29;98892.94;332040;28;18000;-62